sensor_id;sensor_type;location;lat;lon;timestamp;P1;durP1;ratioP1;P2;durP2;ratioP2
4595;SDS011;2310;49.978;8.742;2022-12-13T00:02:12;37.70;;;26.87;;
4595;SDS011;2310;49.978;8.742;2022-12-13T00:06:13;33.60;;;23.87;;
4595;SDS011;2310;49.978;8.742;2022-12-13T00:10:14;35.60;;;23.40;;
4595;SDS011;2310;49.978;8.742;2022-12-13T00:14:15;33.73;;;22.00;;
4595;SDS011;2310;49.978;8.742;2022-12-13T00:18:17;35.10;;;23.40;;
4595;SDS011;2310;49.978;8.742;2022-12-13T00:22:18;42.70;;;27.00;;
4595;SDS011;2310;49.978;8.742;2022-12-13T00:26:20;35.33;;;23.77;;
4595;SDS011;2310;49.978;8.742;2022-12-13T00:30:23;36.83;;;25.70;;
4595;SDS011;2310;49.978;8.742;2022-12-13T00:34:25;41.70;;;26.00;;
4595;SDS011;2310;49.978;8.742;2022-12-13T00:38:27;41.40;;;27.43;;
4595;SDS011;2310;49.978;8.742;2022-12-13T00:42:28;36.73;;;24.53;;
4595;SDS011;2310;49.978;8.742;2022-12-13T00:46:29;39.63;;;24.17;;
4595;SDS011;2310;49.978;8.742;2022-12-13T00:50:31;40.20;;;25.90;;
4595;SDS011;2310;49.978;8.742;2022-12-13T00:54:33;40.40;;;26.43;;
4595;SDS011;2310;49.978;8.742;2022-12-13T00:58:34;44.97;;;27.47;;
4595;SDS011;2310;49.978;8.742;2022-12-13T01:02:35;41.13;;;24.70;;
4595;SDS011;2310;49.978;8.742;2022-12-13T01:06:41;44.27;;;24.70;;
4595;SDS011;2310;49.978;8.742;2022-12-13T01:10:44;37.93;;;22.37;;
4595;SDS011;2310;49.978;8.742;2022-12-13T01:14:46;39.13;;;24.57;;
4595;SDS011;2310;49.978;8.742;2022-12-13T01:18:49;34.97;;;23.47;;
4595;SDS011;2310;49.978;8.742;2022-12-13T01:22:50;39.27;;;23.53;;
4595;SDS011;2310;49.978;8.742;2022-12-13T01:26:52;34.20;;;22.37;;
4595;SDS011;2310;49.978;8.742;2022-12-13T01:30:56;45.57;;;26.87;;
4595;SDS011;2310;49.978;8.742;2022-12-13T01:34:59;39.07;;;25.70;;
4595;SDS011;2310;49.978;8.742;2022-12-13T01:39:00;36.30;;;25.33;;
4595;SDS011;2310;49.978;8.742;2022-12-13T01:43:01;42.90;;;27.50;;
4595;SDS011;2310;49.978;8.742;2022-12-13T01:47:04;44.90;;;23.70;;
4595;SDS011;2310;49.978;8.742;2022-12-13T01:51:06;40.53;;;25.07;;
4595;SDS011;2310;49.978;8.742;2022-12-13T01:55:10;41.13;;;25.40;;
4595;SDS011;2310;49.978;8.742;2022-12-13T01:59:12;45.00;;;27.03;;
4595;SDS011;2310;49.978;8.742;2022-12-13T02:03:15;39.70;;;26.43;;
4595;SDS011;2310;49.978;8.742;2022-12-13T02:07:21;40.03;;;25.33;;
4595;SDS011;2310;49.978;8.742;2022-12-13T02:11:25;43.27;;;25.73;;
4595;SDS011;2310;49.978;8.742;2022-12-13T02:15:29;39.20;;;23.10;;
4595;SDS011;2310;49.978;8.742;2022-12-13T02:24:14;39.30;;;23.57;;
4595;SDS011;2310;49.978;8.742;2022-12-13T02:28:31;41.03;;;26.30;;
4595;SDS011;2310;49.978;8.742;2022-12-13T02:32:38;40.97;;;24.13;;
4595;SDS011;2310;49.978;8.742;2022-12-13T02:36:55;41.60;;;24.77;;
4595;SDS011;2310;49.978;8.742;2022-12-13T02:41:08;43.03;;;24.13;;
4595;SDS011;2310;49.978;8.742;2022-12-13T02:45:17;42.43;;;25.03;;
4595;SDS011;2310;49.978;8.742;2022-12-13T02:49:21;40.00;;;23.30;;
4595;SDS011;2310;49.978;8.742;2022-12-13T02:53:25;38.70;;;24.37;;
4595;SDS011;2310;49.978;8.742;2022-12-13T02:57:34;39.40;;;24.30;;
4595;SDS011;2310;49.978;8.742;2022-12-13T03:06:06;39.50;;;22.87;;
4595;SDS011;2310;49.978;8.742;2022-12-13T03:10:28;40.73;;;21.67;;
4595;SDS011;2310;49.978;8.742;2022-12-13T03:14:37;33.30;;;21.10;;
4595;SDS011;2310;49.978;8.742;2022-12-13T03:18:41;32.53;;;20.27;;
4595;SDS011;2310;49.978;8.742;2022-12-13T03:22:43;33.23;;;20.67;;
4595;SDS011;2310;49.978;8.742;2022-12-13T03:26:45;37.70;;;22.10;;
4595;SDS011;2310;49.978;8.742;2022-12-13T03:30:48;30.17;;;19.20;;
4595;SDS011;2310;49.978;8.742;2022-12-13T03:34:49;34.57;;;21.00;;
4595;SDS011;2310;49.978;8.742;2022-12-13T03:38:52;38.50;;;22.30;;
4595;SDS011;2310;49.978;8.742;2022-12-13T03:42:55;37.37;;;23.23;;
4595;SDS011;2310;49.978;8.742;2022-12-13T03:46:56;35.57;;;20.43;;
4595;SDS011;2310;49.978;8.742;2022-12-13T03:51:01;33.43;;;20.43;;
4595;SDS011;2310;49.978;8.742;2022-12-13T03:55:03;38.23;;;23.17;;
4595;SDS011;2310;49.978;8.742;2022-12-13T03:59:04;31.60;;;21.43;;
4595;SDS011;2310;49.978;8.742;2022-12-13T04:03:05;40.30;;;21.83;;
4595;SDS011;2310;49.978;8.742;2022-12-13T04:07:07;32.27;;;19.57;;
4595;SDS011;2310;49.978;8.742;2022-12-13T04:11:10;34.90;;;21.00;;
4595;SDS011;2310;49.978;8.742;2022-12-13T04:15:30;38.10;;;19.93;;
4595;SDS011;2310;49.978;8.742;2022-12-13T04:19:31;35.50;;;21.47;;
4595;SDS011;2310;49.978;8.742;2022-12-13T04:23:32;36.90;;;21.80;;
4595;SDS011;2310;49.978;8.742;2022-12-13T04:27:33;31.00;;;19.60;;
4595;SDS011;2310;49.978;8.742;2022-12-13T04:31:34;31.13;;;20.00;;
4595;SDS011;2310;49.978;8.742;2022-12-13T04:35:35;31.27;;;18.97;;
4595;SDS011;2310;49.978;8.742;2022-12-13T04:39:36;31.37;;;18.67;;
4595;SDS011;2310;49.978;8.742;2022-12-13T04:43:38;33.17;;;19.80;;
4595;SDS011;2310;49.978;8.742;2022-12-13T04:47:39;28.40;;;17.93;;
4595;SDS011;2310;49.978;8.742;2022-12-13T04:51:42;32.50;;;18.40;;
4595;SDS011;2310;49.978;8.742;2022-12-13T04:55:45;33.40;;;19.73;;
4595;SDS011;2310;49.978;8.742;2022-12-13T04:59:46;30.67;;;20.67;;
4595;SDS011;2310;49.978;8.742;2022-12-13T05:03:47;32.47;;;19.70;;
4595;SDS011;2310;49.978;8.742;2022-12-13T05:07:48;29.90;;;18.80;;
4595;SDS011;2310;49.978;8.742;2022-12-13T05:11:49;32.80;;;19.40;;
4595;SDS011;2310;49.978;8.742;2022-12-13T05:16:00;33.90;;;20.63;;
4595;SDS011;2310;49.978;8.742;2022-12-13T05:19:58;34.30;;;19.83;;
4595;SDS011;2310;49.978;8.742;2022-12-13T05:24:04;33.83;;;22.47;;
4595;SDS011;2310;49.978;8.742;2022-12-13T05:28:03;40.30;;;22.63;;
4595;SDS011;2310;49.978;8.742;2022-12-13T05:32:07;36.20;;;20.70;;
4595;SDS011;2310;49.978;8.742;2022-12-13T05:36:08;38.03;;;22.57;;
4595;SDS011;2310;49.978;8.742;2022-12-13T05:40:09;36.67;;;25.83;;
4595;SDS011;2310;49.978;8.742;2022-12-13T05:44:11;36.80;;;25.30;;
4595;SDS011;2310;49.978;8.742;2022-12-13T05:48:13;34.07;;;21.70;;
4595;SDS011;2310;49.978;8.742;2022-12-13T05:52:20;31.50;;;20.60;;
4595;SDS011;2310;49.978;8.742;2022-12-13T05:56:18;48.50;;;24.43;;
4595;SDS011;2310;49.978;8.742;2022-12-13T06:00:21;47.93;;;24.97;;
4595;SDS011;2310;49.978;8.742;2022-12-13T06:04:25;33.20;;;21.93;;
4595;SDS011;2310;49.978;8.742;2022-12-13T06:08:26;43.67;;;24.90;;
4595;SDS011;2310;49.978;8.742;2022-12-13T06:12:27;33.43;;;23.33;;
4595;SDS011;2310;49.978;8.742;2022-12-13T06:16:30;33.60;;;20.33;;
4595;SDS011;2310;49.978;8.742;2022-12-13T06:20:31;33.40;;;19.97;;
4595;SDS011;2310;49.978;8.742;2022-12-13T06:24:32;33.43;;;20.60;;
4595;SDS011;2310;49.978;8.742;2022-12-13T06:28:34;36.47;;;21.40;;
4595;SDS011;2310;49.978;8.742;2022-12-13T06:32:35;34.90;;;23.37;;
4595;SDS011;2310;49.978;8.742;2022-12-13T06:36:38;32.40;;;22.13;;
4595;SDS011;2310;49.978;8.742;2022-12-13T06:40:39;32.37;;;20.03;;
4595;SDS011;2310;49.978;8.742;2022-12-13T06:44:40;36.60;;;21.90;;
4595;SDS011;2310;49.978;8.742;2022-12-13T06:48:42;37.67;;;21.67;;
4595;SDS011;2310;49.978;8.742;2022-12-13T06:52:44;38.00;;;21.73;;
4595;SDS011;2310;49.978;8.742;2022-12-13T06:56:46;42.80;;;24.53;;
4595;SDS011;2310;49.978;8.742;2022-12-13T07:00:47;43.53;;;26.50;;
4595;SDS011;2310;49.978;8.742;2022-12-13T07:04:50;49.63;;;33.97;;
4595;SDS011;2310;49.978;8.742;2022-12-13T07:08:52;38.13;;;25.03;;
4595;SDS011;2310;49.978;8.742;2022-12-13T07:12:55;39.03;;;24.30;;
4595;SDS011;2310;49.978;8.742;2022-12-13T07:16:57;42.70;;;23.53;;
4595;SDS011;2310;49.978;8.742;2022-12-13T07:21:03;40.57;;;23.20;;
4595;SDS011;2310;49.978;8.742;2022-12-13T07:25:08;38.57;;;23.03;;
4595;SDS011;2310;49.978;8.742;2022-12-13T07:29:11;38.87;;;23.27;;
4595;SDS011;2310;49.978;8.742;2022-12-13T07:33:12;37.43;;;21.60;;
4595;SDS011;2310;49.978;8.742;2022-12-13T07:37:15;37.13;;;21.53;;
4595;SDS011;2310;49.978;8.742;2022-12-13T07:41:18;34.97;;;21.67;;
4595;SDS011;2310;49.978;8.742;2022-12-13T07:45:22;36.70;;;22.00;;
4595;SDS011;2310;49.978;8.742;2022-12-13T07:49:23;37.23;;;22.07;;
4595;SDS011;2310;49.978;8.742;2022-12-13T07:53:24;37.50;;;23.17;;
4595;SDS011;2310;49.978;8.742;2022-12-13T07:57:26;39.30;;;22.33;;
4595;SDS011;2310;49.978;8.742;2022-12-13T08:01:29;37.20;;;23.67;;
4595;SDS011;2310;49.978;8.742;2022-12-13T08:05:34;32.90;;;21.00;;
4595;SDS011;2310;49.978;8.742;2022-12-13T08:09:38;37.20;;;23.80;;
4595;SDS011;2310;49.978;8.742;2022-12-13T08:13:40;37.00;;;20.27;;
4595;SDS011;2310;49.978;8.742;2022-12-13T08:17:41;33.03;;;21.43;;
4595;SDS011;2310;49.978;8.742;2022-12-13T08:21:43;38.20;;;23.70;;
4595;SDS011;2310;49.978;8.742;2022-12-13T08:25:49;48.30;;;23.87;;
4595;SDS011;2310;49.978;8.742;2022-12-13T08:29:52;35.67;;;21.83;;
4595;SDS011;2310;49.978;8.742;2022-12-13T08:33:53;35.00;;;21.33;;
4595;SDS011;2310;49.978;8.742;2022-12-13T08:37:54;37.27;;;22.40;;
4595;SDS011;2310;49.978;8.742;2022-12-13T08:41:58;39.30;;;24.23;;
4595;SDS011;2310;49.978;8.742;2022-12-13T08:46:02;36.70;;;22.70;;
4595;SDS011;2310;49.978;8.742;2022-12-13T08:50:13;32.60;;;21.33;;
4595;SDS011;2310;49.978;8.742;2022-12-13T08:54:16;40.97;;;23.07;;
4595;SDS011;2310;49.978;8.742;2022-12-13T08:58:19;38.97;;;23.43;;
4595;SDS011;2310;49.978;8.742;2022-12-13T09:02:23;40.17;;;25.37;;
4595;SDS011;2310;49.978;8.742;2022-12-13T09:10:43;38.00;;;21.83;;
4595;SDS011;2310;49.978;8.742;2022-12-13T09:14:58;32.17;;;20.60;;
4595;SDS011;2310;49.978;8.742;2022-12-13T09:19:07;28.87;;;20.80;;
4595;SDS011;2310;49.978;8.742;2022-12-13T09:23:17;35.57;;;20.97;;
4595;SDS011;2310;49.978;8.742;2022-12-13T09:27:38;28.33;;;19.70;;
4595;SDS011;2310;49.978;8.742;2022-12-13T09:31:43;30.60;;;20.73;;
4595;SDS011;2310;49.978;8.742;2022-12-13T09:35:49;30.53;;;21.17;;
4595;SDS011;2310;49.978;8.742;2022-12-13T09:39:57;29.83;;;19.57;;
4595;SDS011;2310;49.978;8.742;2022-12-13T09:44:04;25.87;;;19.17;;
4595;SDS011;2310;49.978;8.742;2022-12-13T09:48:11;29.93;;;19.60;;
4595;SDS011;2310;49.978;8.742;2022-12-13T09:52:17;27.63;;;17.43;;
4595;SDS011;2310;49.978;8.742;2022-12-13T09:56:22;36.93;;;26.27;;
4595;SDS011;2310;49.978;8.742;2022-12-13T10:00:32;25.50;;;18.33;;
4595;SDS011;2310;49.978;8.742;2022-12-13T10:04:33;29.40;;;18.73;;
4595;SDS011;2310;49.978;8.742;2022-12-13T10:08:38;25.97;;;19.53;;
4595;SDS011;2310;49.978;8.742;2022-12-13T10:12:42;26.97;;;18.73;;
4595;SDS011;2310;49.978;8.742;2022-12-13T10:16:49;28.70;;;22.63;;
4595;SDS011;2310;49.978;8.742;2022-12-13T10:20:55;31.80;;;20.70;;
4595;SDS011;2310;49.978;8.742;2022-12-13T10:25:00;27.17;;;18.37;;
4595;SDS011;2310;49.978;8.742;2022-12-13T10:29:06;22.87;;;17.87;;
4595;SDS011;2310;49.978;8.742;2022-12-13T10:33:51;27.67;;;19.13;;
4595;SDS011;2310;49.978;8.742;2022-12-13T10:37:30;30.80;;;19.67;;
4595;SDS011;2310;49.978;8.742;2022-12-13T10:41:37;29.93;;;21.10;;
4595;SDS011;2310;49.978;8.742;2022-12-13T10:45:41;27.00;;;19.77;;
4595;SDS011;2310;49.978;8.742;2022-12-13T10:53:58;26.53;;;18.90;;
4595;SDS011;2310;49.978;8.742;2022-12-13T10:58:04;22.23;;;17.83;;
4595;SDS011;2310;49.978;8.742;2022-12-13T11:06:45;27.90;;;18.63;;
4595;SDS011;2310;49.978;8.742;2022-12-13T11:10:56;30.13;;;18.17;;
4595;SDS011;2310;49.978;8.742;2022-12-13T11:15:14;25.10;;;19.07;;
4595;SDS011;2310;49.978;8.742;2022-12-13T11:23:53;31.33;;;21.50;;
4595;SDS011;2310;49.978;8.742;2022-12-13T11:41:11;31.27;;;20.90;;
4595;SDS011;2310;49.978;8.742;2022-12-13T11:45:23;20.73;;;17.33;;
4595;SDS011;2310;49.978;8.742;2022-12-13T11:49:41;27.80;;;19.70;;
4595;SDS011;2310;49.978;8.742;2022-12-13T11:54:04;30.47;;;19.43;;
4595;SDS011;2310;49.978;8.742;2022-12-13T11:58:28;28.43;;;20.07;;
4595;SDS011;2310;49.978;8.742;2022-12-13T12:02:58;27.93;;;19.10;;
4595;SDS011;2310;49.978;8.742;2022-12-13T12:07:10;23.17;;;16.10;;
4595;SDS011;2310;49.978;8.742;2022-12-13T12:11:29;26.30;;;18.63;;
4595;SDS011;2310;49.978;8.742;2022-12-13T12:15:55;23.83;;;17.77;;
4595;SDS011;2310;49.978;8.742;2022-12-13T12:19:59;25.33;;;17.20;;
4595;SDS011;2310;49.978;8.742;2022-12-13T12:32:47;27.13;;;18.53;;
4595;SDS011;2310;49.978;8.742;2022-12-13T12:37:20;25.97;;;18.13;;
4595;SDS011;2310;49.978;8.742;2022-12-13T12:50:50;27.33;;;16.57;;
4595;SDS011;2310;49.978;8.742;2022-12-13T13:04:03;33.13;;;20.80;;
4595;SDS011;2310;49.978;8.742;2022-12-13T13:12:46;28.13;;;20.53;;
4595;SDS011;2310;49.978;8.742;2022-12-13T13:21:45;26.40;;;16.93;;
4595;SDS011;2310;49.978;8.742;2022-12-13T13:26:04;24.67;;;18.27;;
4595;SDS011;2310;49.978;8.742;2022-12-13T13:30:24;25.03;;;17.70;;
4595;SDS011;2310;49.978;8.742;2022-12-13T13:34:27;30.90;;;19.37;;
4595;SDS011;2310;49.978;8.742;2022-12-13T13:38:49;25.57;;;17.67;;
4595;SDS011;2310;49.978;8.742;2022-12-13T13:43:02;27.00;;;19.33;;
4595;SDS011;2310;49.978;8.742;2022-12-13T13:47:27;27.40;;;19.30;;
4595;SDS011;2310;49.978;8.742;2022-12-13T13:55:52;26.47;;;19.10;;
4595;SDS011;2310;49.978;8.742;2022-12-13T14:30:56;35.73;;;24.37;;
4595;SDS011;2310;49.978;8.742;2022-12-13T14:34:58;41.37;;;26.60;;
4595;SDS011;2310;49.978;8.742;2022-12-13T14:39:11;35.77;;;25.23;;
4595;SDS011;2310;49.978;8.742;2022-12-13T14:43:21;30.10;;;23.07;;
4595;SDS011;2310;49.978;8.742;2022-12-13T14:47:41;34.03;;;22.67;;
4595;SDS011;2310;49.978;8.742;2022-12-13T14:51:43;34.40;;;22.83;;
4595;SDS011;2310;49.978;8.742;2022-12-13T14:56:01;35.07;;;24.43;;
4595;SDS011;2310;49.978;8.742;2022-12-13T15:00:39;34.73;;;24.90;;
4595;SDS011;2310;49.978;8.742;2022-12-13T15:04:25;33.17;;;24.07;;
4595;SDS011;2310;49.978;8.742;2022-12-13T15:08:33;41.77;;;30.20;;
4595;SDS011;2310;49.978;8.742;2022-12-13T15:12:37;56.43;;;35.97;;
4595;SDS011;2310;49.978;8.742;2022-12-13T15:16:48;47.37;;;32.97;;
4595;SDS011;2310;49.978;8.742;2022-12-13T15:20:52;47.87;;;29.43;;
4595;SDS011;2310;49.978;8.742;2022-12-13T15:24:54;42.87;;;29.17;;
4595;SDS011;2310;49.978;8.742;2022-12-13T15:28:59;38.70;;;26.50;;
4595;SDS011;2310;49.978;8.742;2022-12-13T15:33:18;31.03;;;20.67;;
4595;SDS011;2310;49.978;8.742;2022-12-13T15:37:30;29.53;;;21.33;;
4595;SDS011;2310;49.978;8.742;2022-12-13T15:41:33;32.77;;;20.20;;
4595;SDS011;2310;49.978;8.742;2022-12-13T15:45:37;25.13;;;17.77;;
4595;SDS011;2310;49.978;8.742;2022-12-13T15:49:49;28.47;;;17.90;;
4595;SDS011;2310;49.978;8.742;2022-12-13T15:58:21;28.20;;;17.70;;
4595;SDS011;2310;49.978;8.742;2022-12-13T16:02:27;27.87;;;18.17;;
4595;SDS011;2310;49.978;8.742;2022-12-13T16:06:30;26.70;;;18.60;;
4595;SDS011;2310;49.978;8.742;2022-12-13T16:10:33;27.02;;;22.25;;
4595;SDS011;2310;49.978;8.742;2022-12-13T16:18:43;34.43;;;24.80;;
4595;SDS011;2310;49.978;8.742;2022-12-13T16:22:46;37.00;;;25.20;;
4595;SDS011;2310;49.978;8.742;2022-12-13T16:26:48;33.47;;;21.80;;
4595;SDS011;2310;49.978;8.742;2022-12-13T16:35:02;29.53;;;20.33;;
4595;SDS011;2310;49.978;8.742;2022-12-13T16:39:04;36.60;;;22.83;;
4595;SDS011;2310;49.978;8.742;2022-12-13T16:43:13;27.47;;;20.10;;
4595;SDS011;2310;49.978;8.742;2022-12-13T16:47:15;28.10;;;18.60;;
4595;SDS011;2310;49.978;8.742;2022-12-13T16:51:19;28.73;;;17.33;;
4595;SDS011;2310;49.978;8.742;2022-12-13T16:55:26;26.27;;;16.30;;
4595;SDS011;2310;49.978;8.742;2022-12-13T16:59:27;22.40;;;17.93;;
4595;SDS011;2310;49.978;8.742;2022-12-13T17:03:28;23.03;;;15.20;;
4595;SDS011;2310;49.978;8.742;2022-12-13T17:07:30;22.70;;;15.30;;
4595;SDS011;2310;49.978;8.742;2022-12-13T17:11:31;24.63;;;15.80;;
4595;SDS011;2310;49.978;8.742;2022-12-13T17:15:33;20.30;;;14.03;;
4595;SDS011;2310;49.978;8.742;2022-12-13T17:19:34;21.83;;;14.40;;
4595;SDS011;2310;49.978;8.742;2022-12-13T17:23:36;18.87;;;12.57;;
4595;SDS011;2310;49.978;8.742;2022-12-13T17:27:37;22.87;;;14.17;;
4595;SDS011;2310;49.978;8.742;2022-12-13T17:31:39;27.47;;;14.03;;
4595;SDS011;2310;49.978;8.742;2022-12-13T17:35:40;20.92;;;17.23;;
4595;SDS011;2310;49.978;8.742;2022-12-13T17:39:45;16.20;;;10.37;;
4595;SDS011;2310;49.978;8.742;2022-12-13T17:43:49;16.73;;;12.80;;
4595;SDS011;2310;49.978;8.742;2022-12-13T17:47:50;17.00;;;12.57;;
4595;SDS011;2310;49.978;8.742;2022-12-13T17:51:52;22.93;;;14.13;;
4595;SDS011;2310;49.978;8.742;2022-12-13T17:55:58;16.43;;;12.00;;
4595;SDS011;2310;49.978;8.742;2022-12-13T18:00:02;18.50;;;12.83;;
4595;SDS011;2310;49.978;8.742;2022-12-13T18:04:04;17.10;;;13.20;;
4595;SDS011;2310;49.978;8.742;2022-12-13T18:08:06;20.70;;;14.23;;
4595;SDS011;2310;49.978;8.742;2022-12-13T18:12:08;19.10;;;14.00;;
4595;SDS011;2310;49.978;8.742;2022-12-13T18:16:10;18.87;;;13.70;;
4595;SDS011;2310;49.978;8.742;2022-12-13T18:20:14;17.40;;;12.30;;
4595;SDS011;2310;49.978;8.742;2022-12-13T18:24:16;17.37;;;12.73;;
4595;SDS011;2310;49.978;8.742;2022-12-13T18:28:17;22.20;;;12.57;;
4595;SDS011;2310;49.978;8.742;2022-12-13T18:32:18;20.60;;;12.60;;
4595;SDS011;2310;49.978;8.742;2022-12-13T18:36:20;20.90;;;14.30;;
4595;SDS011;2310;49.978;8.742;2022-12-13T18:40:24;16.77;;;12.40;;
4595;SDS011;2310;49.978;8.742;2022-12-13T18:44:25;21.13;;;12.67;;
4595;SDS011;2310;49.978;8.742;2022-12-13T18:48:27;19.93;;;14.70;;
4595;SDS011;2310;49.978;8.742;2022-12-13T18:52:29;20.83;;;13.07;;
4595;SDS011;2310;49.978;8.742;2022-12-13T18:56:30;22.63;;;13.47;;
4595;SDS011;2310;49.978;8.742;2022-12-13T19:00:32;18.40;;;12.67;;
4595;SDS011;2310;49.978;8.742;2022-12-13T19:04:33;16.63;;;11.53;;
4595;SDS011;2310;49.978;8.742;2022-12-13T19:08:35;19.27;;;12.50;;
4595;SDS011;2310;49.978;8.742;2022-12-13T19:12:37;17.90;;;11.43;;
4595;SDS011;2310;49.978;8.742;2022-12-13T19:16:38;23.00;;;12.27;;
4595;SDS011;2310;49.978;8.742;2022-12-13T19:20:47;21.10;;;11.67;;
4595;SDS011;2310;49.978;8.742;2022-12-13T19:24:50;18.00;;;12.00;;
4595;SDS011;2310;49.978;8.742;2022-12-13T19:28:53;18.33;;;14.10;;
4595;SDS011;2310;49.978;8.742;2022-12-13T19:32:56;20.93;;;12.70;;
4595;SDS011;2310;49.978;8.742;2022-12-13T19:36:58;21.67;;;12.63;;
4595;SDS011;2310;49.978;8.742;2022-12-13T19:41:08;16.77;;;12.50;;
4595;SDS011;2310;49.978;8.742;2022-12-13T19:45:11;19.40;;;11.93;;
4595;SDS011;2310;49.978;8.742;2022-12-13T19:49:12;18.93;;;13.63;;
4595;SDS011;2310;49.978;8.742;2022-12-13T19:53:13;17.33;;;12.60;;
4595;SDS011;2310;49.978;8.742;2022-12-13T19:57:15;19.17;;;13.70;;
4595;SDS011;2310;49.978;8.742;2022-12-13T20:01:16;20.20;;;12.47;;
4595;SDS011;2310;49.978;8.742;2022-12-13T20:05:19;17.40;;;12.93;;
4595;SDS011;2310;49.978;8.742;2022-12-13T20:09:20;18.07;;;13.60;;
4595;SDS011;2310;49.978;8.742;2022-12-13T20:13:21;18.33;;;13.73;;
4595;SDS011;2310;49.978;8.742;2022-12-13T20:17:22;21.73;;;14.47;;
4595;SDS011;2310;49.978;8.742;2022-12-13T20:21:24;20.20;;;13.90;;
4595;SDS011;2310;49.978;8.742;2022-12-13T20:25:28;17.53;;;13.93;;
4595;SDS011;2310;49.978;8.742;2022-12-13T20:29:29;21.90;;;15.00;;
4595;SDS011;2310;49.978;8.742;2022-12-13T20:33:30;17.83;;;13.60;;
4595;SDS011;2310;49.978;8.742;2022-12-13T20:37:32;19.10;;;14.67;;
4595;SDS011;2310;49.978;8.742;2022-12-13T20:41:35;17.27;;;12.87;;
4595;SDS011;2310;49.978;8.742;2022-12-13T20:45:37;16.97;;;12.37;;
4595;SDS011;2310;49.978;8.742;2022-12-13T20:49:38;20.60;;;12.30;;
4595;SDS011;2310;49.978;8.742;2022-12-13T20:53:41;21.20;;;15.13;;
4595;SDS011;2310;49.978;8.742;2022-12-13T20:57:43;21.30;;;14.30;;
4595;SDS011;2310;49.978;8.742;2022-12-13T21:01:44;19.50;;;14.47;;
4595;SDS011;2310;49.978;8.742;2022-12-13T21:05:48;20.33;;;14.40;;
4595;SDS011;2310;49.978;8.742;2022-12-13T21:09:49;19.07;;;13.00;;
4595;SDS011;2310;49.978;8.742;2022-12-13T21:14:01;20.10;;;13.40;;
4595;SDS011;2310;49.978;8.742;2022-12-13T21:18:20;16.53;;;12.93;;
4595;SDS011;2310;49.978;8.742;2022-12-13T21:22:21;22.23;;;14.30;;
4595;SDS011;2310;49.978;8.742;2022-12-13T21:26:23;24.23;;;16.17;;
4595;SDS011;2310;49.978;8.742;2022-12-13T21:30:27;24.00;;;14.70;;
4595;SDS011;2310;49.978;8.742;2022-12-13T21:34:28;22.73;;;14.33;;
4595;SDS011;2310;49.978;8.742;2022-12-13T21:38:30;22.27;;;15.00;;
4595;SDS011;2310;49.978;8.742;2022-12-13T21:42:31;22.50;;;15.37;;
4595;SDS011;2310;49.978;8.742;2022-12-13T21:46:32;24.17;;;16.43;;
4595;SDS011;2310;49.978;8.742;2022-12-13T21:50:35;22.30;;;14.57;;
4595;SDS011;2310;49.978;8.742;2022-12-13T21:54:37;19.50;;;12.70;;
4595;SDS011;2310;49.978;8.742;2022-12-13T21:58:38;20.57;;;14.80;;
4595;SDS011;2310;49.978;8.742;2022-12-13T22:03:04;18.57;;;14.17;;
4595;SDS011;2310;49.978;8.742;2022-12-13T22:07:06;26.37;;;14.80;;
4595;SDS011;2310;49.978;8.742;2022-12-13T22:11:08;23.03;;;15.60;;
4595;SDS011;2310;49.978;8.742;2022-12-13T22:15:18;20.40;;;13.73;;
4595;SDS011;2310;49.978;8.742;2022-12-13T22:19:19;16.87;;;12.23;;
4595;SDS011;2310;49.978;8.742;2022-12-13T22:23:21;18.53;;;12.43;;
4595;SDS011;2310;49.978;8.742;2022-12-13T22:27:23;17.87;;;11.97;;
4595;SDS011;2310;49.978;8.742;2022-12-13T22:31:25;15.43;;;11.73;;
4595;SDS011;2310;49.978;8.742;2022-12-13T22:35:28;19.60;;;13.40;;
4595;SDS011;2310;49.978;8.742;2022-12-13T22:39:29;22.60;;;12.97;;
4595;SDS011;2310;49.978;8.742;2022-12-13T22:43:34;18.80;;;13.47;;
4595;SDS011;2310;49.978;8.742;2022-12-13T22:47:35;17.73;;;11.73;;
4595;SDS011;2310;49.978;8.742;2022-12-13T22:51:37;17.40;;;11.63;;
4595;SDS011;2310;49.978;8.742;2022-12-13T22:55:39;20.30;;;11.73;;
4595;SDS011;2310;49.978;8.742;2022-12-13T22:59:40;17.60;;;11.07;;
4595;SDS011;2310;49.978;8.742;2022-12-13T23:03:42;15.47;;;11.80;;
4595;SDS011;2310;49.978;8.742;2022-12-13T23:07:44;17.43;;;12.63;;
4595;SDS011;2310;49.978;8.742;2022-12-13T23:11:47;19.27;;;12.83;;
4595;SDS011;2310;49.978;8.742;2022-12-13T23:16:07;13.77;;;9.90;;
4595;SDS011;2310;49.978;8.742;2022-12-13T23:20:08;15.90;;;10.60;;
4595;SDS011;2310;49.978;8.742;2022-12-13T23:24:10;17.40;;;10.40;;
4595;SDS011;2310;49.978;8.742;2022-12-13T23:28:13;15.50;;;11.03;;
4595;SDS011;2310;49.978;8.742;2022-12-13T23:32:14;16.03;;;11.03;;
4595;SDS011;2310;49.978;8.742;2022-12-13T23:36:20;15.37;;;9.87;;
4595;SDS011;2310;49.978;8.742;2022-12-13T23:40:23;17.53;;;9.80;;
4595;SDS011;2310;49.978;8.742;2022-12-13T23:44:25;13.70;;;8.97;;
4595;SDS011;2310;49.978;8.742;2022-12-13T23:48:27;13.57;;;9.37;;
4595;SDS011;2310;49.978;8.742;2022-12-13T23:52:29;20.93;;;11.57;;
4595;SDS011;2310;49.978;8.742;2022-12-13T23:56:31;15.77;;;9.33;;
